Time;durP1;ratioP1;P1;durP2;ratioP2;P2;SDS_P1;SDS_P2;PMS_P1;PMS_P2;Temp;Humidity;BMP_temperature;BMP_pressure;BME280_temperature;BME280_humidity;BME280_pressure;Samples;Min_cycle;Max_cycle;Signal;HPM_P1;HPM_P2
2023/05/19 00:00:02;;;;;;;99.50;91.97;;;;;;;;;;5004287;28;20455;-73
2023/05/19 00:02:32;;;;;;;36.30;33.70;;;;;;;;;;5031849;28;20485;-75
2023/05/19 00:05:00;;;;;;;97.37;89.93;;;;;;;;;;5016830;28;20453;-74
2023/05/19 00:07:29;;;;;;;33.83;31.30;;;;;;;;;;5007199;28;20424;-74
2023/05/19 00:09:55;;;;;;;77.23;70.77;;;;;;;;;;5011982;28;20428;-74
2023/05/19 00:12:22;;;;;;;40.17;38.00;;;;;;;;;;5007647;28;20505;-74
2023/05/19 00:14:48;;;;;;;136.00;126.27;;;;;;;;;;5011338;28;20427;-74
2023/05/19 00:17:15;;;;;;;48.23;45.50;;;;;;;;;;5007704;28;20506;-74
2023/05/19 00:19:41;;;;;;;97.77;90.87;;;;;;;;;;5003964;28;20411;-73
2023/05/19 00:22:07;;;;;;;51.70;48.57;;;;;;;;;;5008240;28;20489;-74
2023/05/19 00:24:34;;;;;;;52.40;49.30;;;;;;;;;;5008108;28;20462;-74
2023/05/19 00:27:00;;;;;;;39.20;36.63;;;;;;;;;;5011541;28;20446;-74
2023/05/19 00:29:26;;;;;;;49.70;46.70;;;;;;;;;;5005891;28;20443;-74
2023/05/19 00:31:52;;;;;;;53.40;50.10;;;;;;;;;;5001605;28;20938;-74
2023/05/19 00:34:18;;;;;;;57.73;53.57;;;;;;;;;;5021925;28;20840;-74
2023/05/19 00:36:43;;;;;;;50.27;47.00;;;;;;;;;;5012559;28;20430;-73
2023/05/19 00:39:10;;;;;;;72.70;68.20;;;;;;;;;;5015296;28;20577;-74
2023/05/19 00:41:35;;;;;;;82.20;76.90;;;;;;;;;;5013496;28;21082;-73
2023/05/19 00:44:02;;;;;;;112.87;105.23;;;;;;;;;;5023910;28;20503;-73
2023/05/19 00:46:29;;;;;;;72.83;68.30;;;;;;;;;;5031378;28;20521;-74
2023/05/19 00:48:55;;;;;;;73.97;69.33;;;;;;;;;;5021613;28;21728;-74
2023/05/19 00:51:22;;;;;;;76.50;71.50;;;;;;;;;;5020197;28;20530;-75
2023/05/19 00:53:49;;;;;;;84.00;78.60;;;;;;;;;;5024398;28;20895;-73
2023/05/19 00:56:16;;;;;;;89.13;82.30;;;;;;;;;;5002001;28;21193;-75
2023/05/19 00:58:42;;;;;;;220.93;197.03;;;;;;;;;;5004817;28;20420;-73
2023/05/19 01:01:08;;;;;;;138.07;128.07;;;;;;;;;;5005748;28;20946;-74
2023/05/19 01:03:34;;;;;;;44.40;41.50;;;;;;;;;;5021570;28;20481;-74
2023/05/19 01:06:03;;;;;;;102.03;93.90;;;;;;;;;;5021051;28;20453;-73
2023/05/19 01:08:31;;;;;;;49.23;45.97;;;;;;;;;;5008925;28;20419;-74
2023/05/19 01:10:57;;;;;;;75.10;69.90;;;;;;;;;;5009319;28;20458;-74
2023/05/19 01:13:23;;;;;;;74.90;69.57;;;;;;;;;;5011950;28;20914;-74
2023/05/19 01:15:57;;;;;;;119.03;109.73;;;;;;;;;;5011632;28;20430;-74
2023/05/19 01:18:29;;;;;;;124.43;114.80;;;;;;;;;;5017015;28;20422;-74
2023/05/19 01:21:04;;;;;;;134.63;124.30;;;;;;;;;;5019401;28;20477;-74
2023/05/19 01:23:35;;;;;;;139.97;129.37;;;;;;;;;;4998422;28;20486;-74
2023/05/19 01:26:13;;;;;;;273.70;253.60;;;;;;;;;;4999767;28;20434;-73
2023/05/19 01:28:42;;;;;;;198.70;181.13;;;;;;;;;;5003305;28;20918;-74
2023/05/19 01:31:10;;;;;;;222.40;197.60;;;;;;;;;;5015498;28;20443;-74
2023/05/19 01:33:37;;;;;;;209.43;189.97;;;;;;;;;;5016794;28;20420;-75
2023/05/19 01:36:03;;;;;;;246.57;228.53;;;;;;;;;;5008622;28;20490;-75
2023/05/19 01:38:30;;;;;;;89.97;83.87;;;;;;;;;;5005143;28;20415;-75
2023/05/19 01:40:56;;;;;;;115.03;106.63;;;;;;;;;;5011094;28;20435;-74
2023/05/19 01:43:24;;;;;;;131.90;122.33;;;;;;;;;;5007999;28;20455;-75
2023/05/19 01:45:50;;;;;;;130.57;121.20;;;;;;;;;;5007849;28;20434;-75
2023/05/19 01:48:17;;;;;;;80.83;75.47;;;;;;;;;;5020965;28;20494;-74
2023/05/19 01:50:43;;;;;;;212.63;191.63;;;;;;;;;;5021013;28;20438;-74
2023/05/19 01:53:09;;;;;;;207.73;185.00;;;;;;;;;;5016582;28;20451;-75
2023/05/19 01:55:39;;;;;;;113.67;105.37;;;;;;;;;;5036668;28;20424;-73
2023/05/19 01:58:18;;;;;;;118.47;109.37;;;;;;;;;;5016668;28;20595;-73
2023/05/19 02:00:56;;;;;;;117.97;109.13;;;;;;;;;;5020942;28;20422;-74
2023/05/19 02:03:37;;;;;;;144.67;132.57;;;;;;;;;;5012084;28;20525;-74
2023/05/19 02:06:14;;;;;;;317.17;284.83;;;;;;;;;;5021302;28;20488;-73
2023/05/19 02:08:47;;;;;;;166.03;150.63;;;;;;;;;;5012487;28;20959;-74
2023/05/19 02:11:33;;;;;;;240.57;185.13;;;;;;;;;;5013415;28;20877;-74
2023/05/19 02:14:01;;;;;;;243.40;179.10;;;;;;;;;;5012532;28;20435;-74
2023/05/19 02:16:28;;;;;;;202.30;181.03;;;;;;;;;;5008844;28;21142;-74
2023/05/19 02:18:55;;;;;;;187.10;167.60;;;;;;;;;;5018137;28;20400;-74
2023/05/19 02:21:21;;;;;;;268.13;191.87;;;;;;;;;;5010398;28;20489;-74
2023/05/19 02:23:47;;;;;;;228.43;186.03;;;;;;;;;;5015737;28;20475;-75
2023/05/19 02:26:13;;;;;;;294.30;195.57;;;;;;;;;;5022085;28;20476;-75
2023/05/19 02:28:39;;;;;;;259.13;186.87;;;;;;;;;;5018003;28;20447;-74
2023/05/19 02:31:07;;;;;;;324.67;239.93;;;;;;;;;;5006172;28;20427;-73
2023/05/19 02:33:33;;;;;;;227.93;180.23;;;;;;;;;;5013902;28;20435;-75
2023/05/19 02:36:00;;;;;;;352.77;318.20;;;;;;;;;;5015522;28;20419;-74
2023/05/19 02:38:26;;;;;;;291.40;192.47;;;;;;;;;;4990919;28;20481;-75
2023/05/19 02:40:52;;;;;;;289.43;266.43;;;;;;;;;;5010779;28;20426;-74
2023/05/19 02:43:18;;;;;;;141.53;129.73;;;;;;;;;;5012822;28;20487;-73
2023/05/19 02:45:44;;;;;;;137.73;125.80;;;;;;;;;;5012480;28;20444;-74
2023/05/19 02:48:10;;;;;;;156.20;141.53;;;;;;;;;;5022200;28;20803;-74
2023/05/19 02:50:36;;;;;;;148.53;134.47;;;;;;;;;;5017989;28;20502;-74
2023/05/19 02:53:03;;;;;;;158.27;142.87;;;;;;;;;;5012200;28;20438;-74
2023/05/19 02:55:29;;;;;;;143.87;131.30;;;;;;;;;;5010410;28;20423;-74
2023/05/19 02:57:55;;;;;;;131.47;120.07;;;;;;;;;;5002846;28;20457;-74
2023/05/19 03:00:21;;;;;;;169.70;153.30;;;;;;;;;;5014202;28;20414;-73
2023/05/19 03:02:48;;;;;;;181.93;162.63;;;;;;;;;;5018004;28;20482;-73
2023/05/19 03:05:14;;;;;;;320.73;172.70;;;;;;;;;;4986659;28;20494;-74
2023/05/19 03:07:40;;;;;;;293.30;167.77;;;;;;;;;;5006096;28;20939;-73
2023/05/19 03:10:07;;;;;;;326.27;167.80;;;;;;;;;;5007402;28;20533;-73
2023/05/19 03:12:33;;;;;;;418.00;188.20;;;;;;;;;;5006087;28;20446;-74
2023/05/19 03:15:00;;;;;;;424.27;197.90;;;;;;;;;;5003922;28;20436;-74
2023/05/19 03:17:27;;;;;;;425.00;197.30;;;;;;;;;;5018103;28;21572;-74
2023/05/19 03:19:53;;;;;;;375.43;179.53;;;;;;;;;;5012013;28;21081;-75
2023/05/19 03:22:20;;;;;;;440.70;206.68;;;;;;;;;;5003753;28;21262;-74
2023/05/19 03:24:46;;;;;;;491.05;280.85;;;;;;;;;;5013987;28;20219;-74
2023/05/19 03:27:12;;;;;;;352.90;188.50;;;;;;;;;;5015439;28;20169;-73
2023/05/19 03:29:38;;;;;;;329.03;173.30;;;;;;;;;;5010860;28;20442;-74
2023/05/19 03:32:04;;;;;;;336.90;179.10;;;;;;;;;;5009781;28;20415;-74
2023/05/19 03:34:34;;;;;;;346.00;171.53;;;;;;;;;;5015751;28;20474;-74
2023/05/19 03:37:00;;;;;;;398.48;179.57;;;;;;;;;;5007390;28;20430;-74
2023/05/19 03:39:26;;;;;;;429.83;186.40;;;;;;;;;;5007240;28;20585;-73
2023/05/19 03:41:52;;;;;;;434.40;180.10;;;;;;;;;;5002198;28;20549;-74
2023/05/19 03:44:18;;;;;;;432.87;193.10;;;;;;;;;;5013630;28;20474;-75
2023/05/19 03:46:44;;;;;;;384.40;179.43;;;;;;;;;;5006497;28;20449;-74
2023/05/19 03:49:10;;;;;;;383.53;176.80;;;;;;;;;;5029129;28;20450;-75
2023/05/19 03:51:36;;;;;;;450.53;179.90;;;;;;;;;;5037557;28;20436;-74
2023/05/19 03:54:03;;;;;;;474.03;183.43;;;;;;;;;;5019338;28;20462;-73
2023/05/19 03:56:29;;;;;;;459.70;188.88;;;;;;;;;;4994040;28;20439;-74
2023/05/19 03:58:55;;;;;;;445.63;167.43;;;;;;;;;;5020775;28;20718;-74
2023/05/19 04:01:21;;;;;;;466.53;189.07;;;;;;;;;;5006117;28;20224;-74
2023/05/19 04:03:47;;;;;;;454.85;176.95;;;;;;;;;;5012141;28;20497;-74
2023/05/19 04:06:13;;;;;;;458.87;187.30;;;;;;;;;;5017484;28;20220;-74
2023/05/19 04:08:40;;;;;;;423.27;172.88;;;;;;;;;;5004447;28;20446;-74
2023/05/19 04:11:06;;;;;;;466.95;182.43;;;;;;;;;;5008108;28;20268;-74
2023/05/19 04:13:32;;;;;;;449.63;190.03;;;;;;;;;;5015447;28;20192;-73
2023/05/19 04:15:58;;;;;;;405.43;171.73;;;;;;;;;;4994607;28;20529;-74
2023/05/19 04:18:24;;;;;;;415.30;175.90;;;;;;;;;;5017282;28;20522;-74
2023/05/19 04:20:50;;;;;;;421.38;177.35;;;;;;;;;;5009364;28;20435;-74
2023/05/19 04:23:16;;;;;;;449.85;182.18;;;;;;;;;;5012806;28;20216;-73
2023/05/19 04:25:42;;;;;;;425.83;186.50;;;;;;;;;;5014576;28;20578;-75
2023/05/19 04:28:08;;;;;;;453.63;175.90;;;;;;;;;;5012823;28;20466;-73
2023/05/19 04:30:35;;;;;;;469.47;193.03;;;;;;;;;;5024563;28;20410;-73
2023/05/19 04:33:02;;;;;;;409.30;180.98;;;;;;;;;;5011805;28;20482;-75
2023/05/19 04:35:27;;;;;;;435.55;190.75;;;;;;;;;;5017039;28;20184;-74
2023/05/19 04:37:54;;;;;;;419.70;188.17;;;;;;;;;;5007233;28;20298;-74
2023/05/19 04:40:22;;;;;;;455.23;210.85;;;;;;;;;;5012274;28;20913;-75
2023/05/19 04:42:48;;;;;;;472.97;212.80;;;;;;;;;;5006065;28;20698;-74
2023/05/19 04:45:14;;;;;;;495.27;226.23;;;;;;;;;;5014178;28;20421;-74
2023/05/19 04:47:41;;;;;;;431.52;214.95;;;;;;;;;;5011129;28;20776;-75
2023/05/19 04:50:08;;;;;;;451.40;223.80;;;;;;;;;;5013139;28;20262;-73
2023/05/19 04:52:34;;;;;;;449.57;248.33;;;;;;;;;;5010955;28;20188;-76
2023/05/19 04:55:00;;;;;;;472.90;253.18;;;;;;;;;;5018355;28;20403;-74
2023/05/19 04:57:26;;;;;;;522.07;334.77;;;;;;;;;;5009581;28;20217;-75
2023/05/19 04:59:58;;;;;;;479.83;276.83;;;;;;;;;;5014853;28;20421;-74
2023/05/19 05:02:24;;;;;;;588.17;395.37;;;;;;;;;;5000123;28;20478;-74
2023/05/19 05:04:53;;;;;;;520.33;315.67;;;;;;;;;;5011356;28;20824;-75
2023/05/19 05:07:19;;;;;;;567.70;437.33;;;;;;;;;;5009261;28;21052;-75
2023/05/19 05:09:45;;;;;;;559.63;349.83;;;;;;;;;;5006847;28;20437;-74
2023/05/19 05:12:11;;;;;;;496.83;378.13;;;;;;;;;;5011675;28;20789;-74
2023/05/19 05:14:38;;;;;;;468.23;358.93;;;;;;;;;;5005247;28;20438;-74
2023/05/19 05:17:05;;;;;;;460.57;371.67;;;;;;;;;;5012105;28;20865;-74
2023/05/19 05:19:31;;;;;;;452.10;400.50;;;;;;;;;;5011654;28;20496;-75
2023/05/19 05:21:57;;;;;;;481.43;417.10;;;;;;;;;;5016819;28;20435;-75
2023/05/19 05:24:23;;;;;;;532.03;420.27;;;;;;;;;;5016253;28;20462;-75
2023/05/19 05:26:49;;;;;;;517.33;432.67;;;;;;;;;;5001314;28;20539;-75
2023/05/19 05:29:15;;;;;;;583.00;479.77;;;;;;;;;;5019479;28;20997;-73
2023/05/19 05:31:41;;;;;;;590.47;503.27;;;;;;;;;;5020593;28;20427;-75
2023/05/19 05:34:07;;;;;;;501.50;448.57;;;;;;;;;;5008431;28;20435;-75
2023/05/19 05:36:34;;;;;;;539.20;481.53;;;;;;;;;;5019761;28;20805;-75
2023/05/19 05:39:01;;;;;;;551.30;493.77;;;;;;;;;;5015048;28;20447;-75
2023/05/19 05:41:28;;;;;;;602.90;542.00;;;;;;;;;;5017370;28;20989;-74
2023/05/19 05:43:54;;;;;;;584.33;522.33;;;;;;;;;;5018338;28;20470;-75
2023/05/19 05:46:20;;;;;;;635.37;574.30;;;;;;;;;;5036474;28;20445;-75
2023/05/19 05:48:46;;;;;;;627.27;570.13;;;;;;;;;;5025044;28;21336;-74
2023/05/19 05:51:12;;;;;;;649.63;589.57;;;;;;;;;;5019676;28;20971;-76
2023/05/19 05:53:43;;;;;;;651.07;591.67;;;;;;;;;;5011155;28;20431;-73
2023/05/19 05:56:10;;;;;;;659.67;592.50;;;;;;;;;;5024864;28;20420;-74
2023/05/19 05:58:36;;;;;;;661.37;599.37;;;;;;;;;;5023025;28;20439;-73
2023/05/19 06:01:03;;;;;;;670.73;608.23;;;;;;;;;;5013638;28;20415;-73
2023/05/19 06:03:30;;;;;;;700.67;638.30;;;;;;;;;;5009896;28;20466;-77
2023/05/19 06:05:56;;;;;;;729.30;662.73;;;;;;;;;;5016122;28;20404;-74
2023/05/19 06:08:22;;;;;;;706.07;653.33;;;;;;;;;;5010098;28;20434;-75
2023/05/19 06:10:48;;;;;;;724.23;664.63;;;;;;;;;;5019122;28;20469;-74
2023/05/19 06:13:17;;;;;;;746.43;683.47;;;;;;;;;;5012194;28;20808;-74
2023/05/19 06:15:43;;;;;;;752.63;686.73;;;;;;;;;;5010813;28;20858;-73
2023/05/19 06:18:09;;;;;;;758.37;699.50;;;;;;;;;;5016536;28;20435;-74
2023/05/19 06:20:35;;;;;;;763.47;704.57;;;;;;;;;;5019120;28;20477;-74
2023/05/19 06:23:02;;;;;;;737.37;681.97;;;;;;;;;;5001544;28;20475;-75
2023/05/19 06:25:29;;;;;;;772.13;710.57;;;;;;;;;;5014090;28;20466;-74
2023/05/19 06:27:55;;;;;;;845.23;781.33;;;;;;;;;;4996938;28;20450;-75
2023/05/19 06:30:20;;;;;;;816.23;757.83;;;;;;;;;;5017116;28;20763;-74
2023/05/19 06:32:46;;;;;;;845.63;780.67;;;;;;;;;;4988792;28;20457;-75
2023/05/19 06:35:12;;;;;;;801.60;739.20;;;;;;;;;;5022172;28;20418;-75
2023/05/19 06:37:38;;;;;;;770.43;718.97;;;;;;;;;;5004179;28;20431;-74
2023/05/19 06:40:05;;;;;;;806.33;751.87;;;;;;;;;;5013094;28;20481;-75
2023/05/19 06:42:31;;;;;;;785.20;735.27;;;;;;;;;;5015045;28;20466;-74
2023/05/19 06:44:57;;;;;;;756.17;709.17;;;;;;;;;;5011184;28;21014;-75
2023/05/19 06:47:23;;;;;;;865.17;807.60;;;;;;;;;;5012482;28;20431;-76
2023/05/19 06:49:53;;;;;;;847.87;791.50;;;;;;;;;;5011720;28;20521;-75
2023/05/19 06:52:19;;;;;;;883.83;826.57;;;;;;;;;;5014930;28;20945;-75
2023/05/19 06:54:48;;;;;;;929.80;857.80;;;;;;;;;;5009676;28;20468;-75
2023/05/19 06:57:16;;;;;;;929.07;859.73;;;;;;;;;;5021546;28;20434;-75
2023/05/19 06:59:42;;;;;;;913.83;850.47;;;;;;;;;;4987591;28;20612;-75
2023/05/19 07:02:08;;;;;;;912.27;846.87;;;;;;;;;;5019644;28;21110;-74
2023/05/19 07:04:35;;;;;;;921.83;853.77;;;;;;;;;;5012405;28;20924;-74
2023/05/19 07:07:01;;;;;;;903.97;841.07;;;;;;;;;;5008968;28;20419;-75
2023/05/19 07:09:27;;;;;;;912.43;846.97;;;;;;;;;;5008026;28;20609;-74
2023/05/19 07:11:55;;;;;;;922.87;856.10;;;;;;;;;;5011696;28;20466;-74
2023/05/19 07:14:21;;;;;;;895.70;831.33;;;;;;;;;;5022366;28;20446;-75
2023/05/19 07:16:47;;;;;;;892.73;825.57;;;;;;;;;;5016260;28;20443;-74
2023/05/19 07:19:13;;;;;;;909.27;843.67;;;;;;;;;;4993801;28;20475;-75
2023/05/19 07:21:39;;;;;;;717.80;676.13;;;;;;;;;;5022370;28;20442;-76
2023/05/19 07:24:05;;;;;;;759.87;714.10;;;;;;;;;;4991428;28;20485;-75
2023/05/19 07:26:31;;;;;;;636.03;599.80;;;;;;;;;;5003802;28;20443;-76
2023/05/19 07:28:57;;;;;;;773.80;727.00;;;;;;;;;;5020487;28;20455;-74
2023/05/19 07:31:23;;;;;;;918.70;854.60;;;;;;;;;;5021070;28;20450;-75
2023/05/19 07:33:54;;;;;;;700.97;660.07;;;;;;;;;;5008747;28;20509;-75
2023/05/19 07:36:21;;;;;;;393.07;373.87;;;;;;;;;;5015448;28;20420;-76
2023/05/19 07:38:50;;;;;;;133.40;127.30;;;;;;;;;;5012657;28;20439;-75
2023/05/19 07:41:17;;;;;;;182.47;174.73;;;;;;;;;;5026772;28;20451;-75
2023/05/19 07:43:43;;;;;;;192.33;183.97;;;;;;;;;;5026870;28;20478;-75
2023/05/19 07:46:08;;;;;;;112.63;107.80;;;;;;;;;;5031667;28;20430;-76
2023/05/19 07:48:35;;;;;;;159.47;153.07;;;;;;;;;;5022956;28;20445;-76
2023/05/19 07:51:01;;;;;;;157.20;150.53;;;;;;;;;;5007727;28;20446;-75
2023/05/19 07:53:27;;;;;;;267.83;256.13;;;;;;;;;;5014852;28;20441;-76
2023/05/19 07:55:53;;;;;;;290.13;276.97;;;;;;;;;;5024290;28;20407;-75
2023/05/19 07:58:19;;;;;;;225.57;213.73;;;;;;;;;;5006905;28;20438;-76
2023/05/19 08:00:45;;;;;;;194.83;185.90;;;;;;;;;;4998847;28;20501;-76
2023/05/19 08:03:12;;;;;;;378.90;357.33;;;;;;;;;;5007306;28;21052;-75
2023/05/19 08:05:38;;;;;;;379.40;361.47;;;;;;;;;;5014872;28;20519;-75
2023/05/19 08:08:05;;;;;;;366.73;348.63;;;;;;;;;;5008099;28;20468;-73
2023/05/19 08:10:35;;;;;;;320.30;305.37;;;;;;;;;;5013784;28;20414;-73
2023/05/19 08:13:01;;;;;;;334.50;319.00;;;;;;;;;;5011174;28;20446;-74
2023/05/19 08:15:27;;;;;;;223.60;213.90;;;;;;;;;;5005358;28;20443;-74
2023/05/19 08:17:53;;;;;;;297.03;283.40;;;;;;;;;;5008149;28;20414;-74
2023/05/19 08:20:21;;;;;;;412.63;391.83;;;;;;;;;;5009812;28;20439;-73
2023/05/19 08:22:47;;;;;;;155.43;148.83;;;;;;;;;;5008112;28;20474;-73
2023/05/19 08:25:15;;;;;;;332.20;316.27;;;;;;;;;;5002680;28;20458;-73
2023/05/19 08:27:43;;;;;;;371.80;354.00;;;;;;;;;;5014166;28;20450;-74
2023/05/19 08:30:09;;;;;;;422.50;400.30;;;;;;;;;;5003990;28;21155;-73
2023/05/19 08:32:35;;;;;;;393.40;374.13;;;;;;;;;;5011408;28;20446;-74
2023/05/19 08:35:02;;;;;;;458.10;433.47;;;;;;;;;;5006264;28;20439;-76
2023/05/19 08:37:28;;;;;;;347.97;331.77;;;;;;;;;;5023112;28;21113;-74
2023/05/19 08:39:54;;;;;;;241.57;230.73;;;;;;;;;;5018204;28;20442;-75
2023/05/19 08:42:21;;;;;;;269.77;258.07;;;;;;;;;;5018083;28;20572;-72
2023/05/19 08:44:47;;;;;;;464.83;441.20;;;;;;;;;;5015284;28;20545;-75
2023/05/19 08:47:13;;;;;;;493.97;467.57;;;;;;;;;;5012116;28;20451;-74
2023/05/19 08:49:44;;;;;;;549.10;519.10;;;;;;;;;;5010913;28;20488;-73
2023/05/19 08:52:16;;;;;;;494.20;467.50;;;;;;;;;;5015471;28;20447;-74
2023/05/19 08:54:53;;;;;;;275.10;262.87;;;;;;;;;;5021644;28;20446;-72
2023/05/19 08:57:20;;;;;;;363.23;345.73;;;;;;;;;;5024281;28;20431;-74
2023/05/19 08:59:47;;;;;;;117.13;112.30;;;;;;;;;;5018590;28;20438;-73
2023/05/19 09:02:14;;;;;;;276.73;264.50;;;;;;;;;;5014023;28;20497;-73
2023/05/19 09:04:44;;;;;;;501.40;474.80;;;;;;;;;;4988654;28;20541;-74
2023/05/19 09:07:10;;;;;;;353.33;336.27;;;;;;;;;;5014408;28;20430;-73
2023/05/19 09:09:37;;;;;;;268.27;256.77;;;;;;;;;;5009039;28;20515;-73
2023/05/19 09:12:03;;;;;;;332.87;317.23;;;;;;;;;;5013317;28;20437;-74
2023/05/19 09:14:30;;;;;;;387.60;368.53;;;;;;;;;;4998912;28;20438;-75
2023/05/19 09:16:56;;;;;;;409.70;389.20;;;;;;;;;;5007769;28;20443;-74
2023/05/19 09:19:22;;;;;;;481.03;455.13;;;;;;;;;;5007804;28;20606;-74
2023/05/19 09:21:59;;;;;;;528.67;498.73;;;;;;;;;;5011531;28;20457;-75
2023/05/19 09:24:25;;;;;;;719.77;675.60;;;;;;;;;;5003240;28;20481;-77
2023/05/19 09:26:54;;;;;;;811.00;761.67;;;;;;;;;;4999821;28;20447;-75
2023/05/19 09:29:20;;;;;;;732.77;688.77;;;;;;;;;;5010752;28;20516;-74
2023/05/19 09:31:49;;;;;;;525.33;496.93;;;;;;;;;;5020403;28;20816;-74
2023/05/19 09:34:15;;;;;;;597.77;564.70;;;;;;;;;;5012224;28;21265;-74
2023/05/19 09:36:42;;;;;;;560.87;529.73;;;;;;;;;;5018531;28;20467;-74
2023/05/19 09:39:18;;;;;;;675.17;635.43;;;;;;;;;;5025840;28;20435;-74
2023/05/19 09:41:44;;;;;;;494.20;467.63;;;;;;;;;;5043277;28;20469;-75
2023/05/19 09:44:39;;;;;;;490.17;463.93;;;;;;;;;;5035711;28;20476;-75
2023/05/19 09:47:05;;;;;;;581.10;547.37;;;;;;;;;;5022404;28;20451;-74
2023/05/19 09:49:32;;;;;;;539.93;509.67;;;;;;;;;;5010982;28;20469;-75
2023/05/19 09:51:59;;;;;;;609.20;573.50;;;;;;;;;;5008503;28;21010;-74
2023/05/19 09:54:30;;;;;;;644.83;606.97;;;;;;;;;;5010295;28;20446;-74
2023/05/19 09:57:00;;;;;;;721.27;676.83;;;;;;;;;;5016178;28;20499;-74
2023/05/19 09:59:26;;;;;;;782.50;733.60;;;;;;;;;;5024075;28;20476;-75
2023/05/19 10:01:56;;;;;;;749.73;702.97;;;;;;;;;;4989178;28;20935;-75
2023/05/19 10:04:26;;;;;;;677.13;636.77;;;;;;;;;;5001430;28;20481;-75
2023/05/19 10:06:53;;;;;;;675.83;629.93;;;;;;;;;;5013396;28;20445;-75
2023/05/19 10:09:22;;;;;;;763.13;715.90;;;;;;;;;;5020882;28;20423;-77
2023/05/19 10:11:51;;;;;;;395.70;376.03;;;;;;;;;;5006104;28;20455;-75
2023/05/19 10:14:17;;;;;;;460.40;436.37;;;;;;;;;;5020360;28;20435;-76
2023/05/19 10:16:44;;;;;;;411.47;390.57;;;;;;;;;;5012785;28;20450;-75
2023/05/19 10:19:10;;;;;;;410.67;389.43;;;;;;;;;;5013250;28;20439;-76
2023/05/19 10:21:36;;;;;;;414.20;393.70;;;;;;;;;;5007559;28;20439;-77
2023/05/19 10:24:02;;;;;;;248.47;237.60;;;;;;;;;;5002675;28;20529;-76
2023/05/19 10:26:29;;;;;;;275.63;263.50;;;;;;;;;;5006252;28;20451;-77
2023/05/19 10:28:56;;;;;;;338.03;321.23;;;;;;;;;;5018525;28;20945;-78
2023/05/19 10:31:22;;;;;;;394.17;375.03;;;;;;;;;;5009721;28;20978;-74
2023/05/19 10:33:51;;;;;;;379.20;359.90;;;;;;;;;;5013919;28;20497;-76
2023/05/19 10:36:31;;;;;;;251.07;240.17;;;;;;;;;;4992093;28;20467;-75
2023/05/19 10:39:07;;;;;;;280.13;267.83;;;;;;;;;;5019522;28;20434;-75
2023/05/19 10:41:45;;;;;;;154.03;147.57;;;;;;;;;;5005570;28;20471;-77
2023/05/19 10:44:30;;;;;;;54.03;51.23;;;;;;;;;;5018694;28;20978;-76
2023/05/19 10:46:56;;;;;;;55.80;52.90;;;;;;;;;;5015504;28;20469;-76
2023/05/19 10:49:22;;;;;;;170.73;162.87;;;;;;;;;;5010128;28;20683;-77
2023/05/19 10:51:48;;;;;;;222.80;213.17;;;;;;;;;;4999465;28;20435;-75
2023/05/19 10:54:16;;;;;;;182.77;174.97;;;;;;;;;;5024393;28;20521;-76
2023/05/19 10:56:46;;;;;;;267.03;255.10;;;;;;;;;;5026043;28;20431;-76
2023/05/19 10:59:31;;;;;;;291.10;278.13;;;;;;;;;;5023037;28;21015;-76
2023/05/19 11:01:57;;;;;;;210.67;201.87;;;;;;;;;;5020738;28;20437;-76
2023/05/19 11:04:39;;;;;;;227.50;217.57;;;;;;;;;;5012733;28;20470;-75
2023/05/19 11:07:05;;;;;;;329.43;313.90;;;;;;;;;;5002467;28;20454;-76
2023/05/19 11:09:32;;;;;;;293.90;280.57;;;;;;;;;;5018167;28;20419;-76
2023/05/19 11:12:02;;;;;;;108.23;104.13;;;;;;;;;;4995779;28;20450;-76
2023/05/19 11:14:29;;;;;;;94.83;90.47;;;;;;;;;;5012589;28;20471;-75
2023/05/19 11:16:58;;;;;;;146.70;140.57;;;;;;;;;;5019960;28;20516;-75
2023/05/19 11:19:25;;;;;;;154.70;147.83;;;;;;;;;;5017455;28;20434;-76
2023/05/19 11:21:53;;;;;;;147.40;141.20;;;;;;;;;;5013238;28;20443;-76
2023/05/19 11:24:39;;;;;;;181.87;173.90;;;;;;;;;;5008818;28;20467;-76
2023/05/19 11:27:25;;;;;;;282.03;267.23;;;;;;;;;;5012022;28;20453;-76
2023/05/19 11:29:51;;;;;;;269.10;256.87;;;;;;;;;;5013689;28;20537;-76
2023/05/19 11:32:18;;;;;;;211.33;202.60;;;;;;;;;;5013525;28;20447;-76
2023/05/19 11:34:44;;;;;;;156.23;149.83;;;;;;;;;;5011447;28;20900;-76
2023/05/19 11:37:11;;;;;;;250.67;237.73;;;;;;;;;;5022110;28;20503;-76
2023/05/19 11:39:37;;;;;;;220.23;210.33;;;;;;;;;;5039031;28;20850;-77
2023/05/19 11:42:03;;;;;;;211.30;201.27;;;;;;;;;;5023434;28;20450;-78
2023/05/19 11:44:29;;;;;;;34.13;32.23;;;;;;;;;;5013074;28;20545;-76
2023/05/19 11:46:55;;;;;;;42.53;39.00;;;;;;;;;;5014209;28;20443;-77
2023/05/19 11:49:21;;;;;;;144.03;137.93;;;;;;;;;;5012370;28;20426;-76
2023/05/19 11:51:47;;;;;;;185.07;177.20;;;;;;;;;;5010955;28;20457;-76
2023/05/19 11:54:14;;;;;;;228.13;218.40;;;;;;;;;;5013441;28;20535;-76
2023/05/19 11:56:40;;;;;;;278.87;266.43;;;;;;;;;;5010532;28;20434;-76
2023/05/19 11:59:06;;;;;;;327.30;311.90;;;;;;;;;;4995782;28;20778;-76
2023/05/19 12:01:33;;;;;;;357.83;340.33;;;;;;;;;;5015351;28;20439;-75
2023/05/19 12:03:59;;;;;;;107.37;102.57;;;;;;;;;;5015894;28;20491;-77
2023/05/19 12:06:26;;;;;;;170.13;162.53;;;;;;;;;;4993552;28;20435;-75
2023/05/19 12:08:52;;;;;;;121.87;116.53;;;;;;;;;;5004654;28;20448;-76
2023/05/19 12:11:18;;;;;;;57.17;54.40;;;;;;;;;;4989963;28;20478;-77
2023/05/19 12:13:45;;;;;;;226.00;216.37;;;;;;;;;;5012506;28;20438;-76
2023/05/19 12:16:11;;;;;;;204.47;195.83;;;;;;;;;;5005336;28;20439;-76
2023/05/19 12:18:37;;;;;;;130.87;125.73;;;;;;;;;;5011978;28;20434;-76
2023/05/19 12:21:04;;;;;;;227.20;217.50;;;;;;;;;;5022752;28;20441;-80
2023/05/19 12:23:30;;;;;;;260.60;248.67;;;;;;;;;;5012309;28;20768;-82
2023/05/19 12:25:58;;;;;;;143.43;137.30;;;;;;;;;;5015632;28;20753;-80
2023/05/19 12:28:24;;;;;;;53.80;51.23;;;;;;;;;;4998259;28;20435;-78
2023/05/19 12:30:51;;;;;;;185.00;174.30;;;;;;;;;;5009988;28;20453;-77
2023/05/19 12:33:18;;;;;;;238.27;227.53;;;;;;;;;;5014086;28;20545;-78
2023/05/19 12:35:45;;;;;;;269.30;257.67;;;;;;;;;;5011527;28;21112;-78
2023/05/19 12:38:19;;;;;;;369.43;351.67;;;;;;;;;;5013680;28;20533;-79
2023/05/19 12:40:59;;;;;;;330.87;315.70;;;;;;;;;;5011038;28;20544;-78
2023/05/19 12:43:26;;;;;;;329.17;313.97;;;;;;;;;;5003295;28;20865;-78
2023/05/19 12:45:52;;;;;;;324.73;308.13;;;;;;;;;;4995468;28;20815;-78
2023/05/19 12:48:21;;;;;;;273.90;261.43;;;;;;;;;;5011753;28;20394;-79
2023/05/19 12:50:48;;;;;;;332.97;317.73;;;;;;;;;;5012862;28;20446;-78
2023/05/19 12:53:14;;;;;;;365.37;347.17;;;;;;;;;;5008278;28;20932;-76
2023/05/19 12:55:44;;;;;;;155.90;149.60;;;;;;;;;;5013201;28;20516;-79
2023/05/19 12:58:14;;;;;;;186.37;178.50;;;;;;;;;;5017720;28;20868;-78
2023/05/19 13:00:42;;;;;;;186.93;178.77;;;;;;;;;;5009615;28;20427;-78
2023/05/19 13:03:14;;;;;;;154.43;147.97;;;;;;;;;;5004042;28;20900;-78
2023/05/19 13:05:44;;;;;;;289.37;276.37;;;;;;;;;;5016567;28;20435;-77
2023/05/19 13:08:12;;;;;;;295.93;282.47;;;;;;;;;;5011561;28;20458;-76
2023/05/19 13:10:39;;;;;;;441.43;418.30;;;;;;;;;;5018634;28;20431;-77
2023/05/19 13:13:05;;;;;;;271.77;259.87;;;;;;;;;;5012011;28;20462;-76
2023/05/19 13:15:36;;;;;;;248.73;237.67;;;;;;;;;;5022781;28;20425;-76
2023/05/19 13:18:03;;;;;;;425.93;404.40;;;;;;;;;;5004798;28;20994;-78
2023/05/19 13:20:29;;;;;;;488.23;462.10;;;;;;;;;;5014288;28;20856;-77
2023/05/19 13:22:55;;;;;;;507.97;481.03;;;;;;;;;;5010123;28;20465;-77
2023/05/19 13:25:21;;;;;;;377.47;359.07;;;;;;;;;;5014920;28;20588;-76
2023/05/19 13:27:48;;;;;;;441.67;417.53;;;;;;;;;;5009867;28;20440;-77
2023/05/19 13:30:18;;;;;;;454.80;431.10;;;;;;;;;;5025161;28;20486;-77
2023/05/19 13:32:44;;;;;;;442.27;418.83;;;;;;;;;;4994442;28;20458;-77
2023/05/19 13:35:12;;;;;;;454.53;431.13;;;;;;;;;;5025205;28;20505;-75
2023/05/19 13:37:41;;;;;;;462.17;437.90;;;;;;;;;;5032959;28;20434;-77
2023/05/19 13:40:07;;;;;;;348.93;332.30;;;;;;;;;;5036711;28;20416;-76
2023/05/19 13:42:34;;;;;;;389.67;370.80;;;;;;;;;;5022883;28;20593;-77
2023/05/19 13:45:00;;;;;;;469.60;444.77;;;;;;;;;;5014295;28;20467;-80
2023/05/19 13:47:26;;;;;;;255.33;243.83;;;;;;;;;;5002680;28;20435;-78
2023/05/19 13:49:52;;;;;;;288.17;275.07;;;;;;;;;;5018725;28;20430;-78
2023/05/19 13:52:19;;;;;;;285.90;273.20;;;;;;;;;;5002576;28;20931;-78
2023/05/19 13:54:46;;;;;;;341.83;325.50;;;;;;;;;;5012902;28;20534;-79